Aérodrome :
LOGIN :

S'inscrire | Disclaimer

   EN    FR    IT 

 










Légende :    VFR   VFR Marginal   IFR   IFR Intensif   IFR Très Intensif
Visi : 
Plafond : 
>= 8 km
>= 3000ft
5 à 8 km
1000 à 3000 ft
1500m à 5 km
500 à 1000 ft
800 à 1500m
200 à 500 ft
< 800m
< 200 ft
Symboles :   Orages  Brouillard  Fortes neiges  Fortes précipitations  Vent > 20 kt
SIGMETs :   Divers  Orages  Givrage  Turbulence  Onde Orograph.  Cendres Volcan.






- Altitude de l'aérodrome : 1470 ft


LSMD - Dubendorf Military

DERNIER METAR :
  • 291220Z 36003KT 250V060 9999 FEW024 BKN027 09/03 Q1013 RMK BLU

METARs EXPIRÉS :
  • 291150Z AUTO VRB02KT 9999NDV SCT025 09/04 Q1013 RMK
  • 291120Z AUTO VRB02KT 9999NDV BKN024 09/04 Q1014 RMK
  • 291050Z VRB01KT 9999 OVC024 09/03 Q1014 RMK WHT
  • 291020Z VRB02KT 9999 BKN023 09/04 Q1014 RMK WHT
  • 290950Z VRB02KT 7000 FEW023 BKN027 08/05 Q1015 RMK WHT
  • 290920Z VRB01KT 6000 OVC028 08/04 Q1015 RMK WHT
  • 290850Z VRB02KT 6000 OVC028 07/04 Q1015 RMK WHT
  • 290820Z 00000KT 6000 OVC030 07/04 Q1016 RMK WHT
  • 290750Z 00000KT 6000 OVC030 06/04 Q1016 RMK WHT

Prévision TAF périmée.



MET'MAP, la Météo Aéronautique d'un coup d'oeil ! - Copyright ORBIFLY Décembre 2007 - Disclaimer

ORBIFLY MET'MAP TEAM :

Programmation & Développement : Alexandra Zaïnal
Sur une idée originale de : Baudouin d'Aumeries
Soutien technique & logistique : Manuel Goepfert
Assistance : Marc-Olivier Méhu




SOURCES & CREDITS :

   NOAA